Latest Weather Observations for Gannett Cay

IDQ60801

Issued at 10:02 pm EST Thursday 5 May 2016 (issued every 30 minutes, with the page automatically refreshed every 10 minutes)

About weather observations | Map of weather stations | Latest weather observations for QLD | Other Formats
Station Details ID: 200831 Name: GANNET CAY Lat: -21.98 Lon: 152.47 Height: 2.3 m
Data from the previous 72 hours. | See also: Recent months for locations in Queensland
Date/Time
EST
Temp
°C
App
Temp
°C
Dew
Point
Rel
Hum
%
Delta-T
°C
Wind Press
QNH
hPa
Press
MSL
hPa
Rain
since 9 am
mm
Dir
 
Spd
km/h
Gust
km/h
Spd
kts
Gust
kts
05/10:00pm 25.3 - - - - SE 30 33 16 18 1016.8 - -
05/09:30pm 25.3 - - - - SE 28 32 15 17 1017.0 - -
05/09:29pm 25.3 - - - - SE 28 30 15 16 1017.0 1017.1 -
05/09:00pm 25.3 - - - - SE 30 33 16 18 1017.0 - -
05/08:30pm 25.3 - - - - SE 30 35 16 19 1017.1 - -
05/08:29pm 25.3 - - - - SE 30 - 16 - - 1017.2 -
05/08:00pm 25.3 - - - - ESE 32 35 17 19 1016.9 - -
05/07:30pm 25.4 - - - - SE 32 35 17 19 1016.6 - -
05/07:29pm 25.4 - - - - SE 32 - 17 - - 1016.6 -
05/07:00pm 25.4 - - - - SE 33 39 18 21 1016.2 - -
05/06:30pm 25.3 - - - - SE 35 39 19 21 1015.8 - -
05/06:29pm 25.3 - - - - SE 35 - 19 - - 1015.9 -
05/06:00pm 25.3 - - - - SE 35 39 19 21 1015.4 - -
05/05:30pm 25.3 - - - - SE 35 41 19 22 1015.3 - -
05/05:29pm 25.2 - - - - SE 35 - 19 - - 1015.4 -
05/05:00pm 25.2 - - - - SE 35 41 19 22 1014.9 - -
05/04:30pm 25.1 - - - - SE 26 30 14 16 1014.9 - -
05/04:29pm 24.9 - - - - SE 26 - 14 - - 1015.0 -
05/04:00pm 24.9 - - - - SE 28 32 15 17 1014.8 - -
05/03:30pm 25.1 - - - - SSE 20 26 11 14 1014.7 - -
05/03:29pm 25.1 - - - - SSE 20 - 11 - - 1014.9 -
05/03:00pm 25.2 - - - - SE 19 24 10 13 1014.6 - -
05/02:30pm 24.9 - - - - ESE 20 24 11 13 1014.7 - -
05/02:29pm 24.9 - - - - ESE 20 - 11 - - 1014.8 -
05/02:00pm 24.6 - - - - SE 17 19 9 10 1014.8 - -
05/01:30pm 24.2 - - - - SE 19 24 10 13 1014.9 - -
05/01:29pm 24.4 - - - - ESE 20 - 11 - - 1015.0 -
05/01:00pm 24.3 - - - - ESE 20 24 11 13 1015.2 - -
05/12:30pm 23.2 - - - - E 19 24 10 13 1015.6 - -
05/12:29pm 23.2 - - - - E 20 - 11 - - 1015.7 -
05/12:00pm 22.4 - - - - ESE 22 24 12 13 1016.3 - -
05/11:30am 22.9 - - - - ESE 28 32 15 17 1016.8 - -
05/11:29am 23.1 - - - - ESE 28 - 15 - - 1016.9 -
05/11:00am 22.9 - - - - SE 19 24 10 13 1017.3 - -
05/10:30am 23.1 - - - - SE 17 20 9 11 1017.4 - -
05/10:29am 23.0 - - - - SE 17 - 9 - - 1017.5 -
05/10:00am 22.9 - - - - SE 17 22 9 12 1017.6 - -
05/09:30am 22.3 - - - - ESE 19 22 10 12 1017.4 - -
05/09:29am 22.4 - - - - ESE 19 - 10 - - 1017.5 -
05/09:00am 22.0 - - - - ESE 13 15 7 8 1017.8 - -
05/08:30am 21.4 - - - - WSW 6 19 3 10 1017.6 - -
05/08:29am 21.2 - - - - SW 6 - 3 - - 1017.7 -
05/08:00am 22.4 - - - - N 32 44 17 24 1017.1 - -
05/07:30am 23.8 - - - - NE 26 33 14 18 1016.4 - -
05/07:29am 23.9 - - - - NE 24 - 13 - - 1016.5 -
05/07:00am 25.0 - - - - E 19 22 10 12 1016.1 - -
05/06:30am 25.0 - - - - SSE 28 30 15 16 1015.5 - -
05/06:29am 24.9 - - - - SSE 28 - 15 - - 1015.5 -
05/06:00am 25.4 - - - - SE 17 28 9 15 1015.2 - -
05/05:30am 25.2 - - - - SE 11 15 6 8 1015.0 - -
05/05:29am 25.2 - - - - SE 13 - 7 - - 1015.1 -
05/05:00am 25.4 - - - - SE 11 15 6 8 1014.9 - -
05/04:30am 25.4 - - - - SE 11 13 6 7 1014.5 - -
05/04:29am 25.5 - - - - SE 11 - 6 - - 1014.6 -
05/04:00am 25.5 - - - - SE 7 9 4 5 1014.5 - -
05/03:30am 25.6 - - - - E 7 9 4 5 1014.6 - -
05/03:29am 25.6 - - - - E 7 - 4 - - 1014.7 -
05/03:00am 25.5 - - - - E 7 9 4 5 1014.6 - -
05/02:30am 25.5 - - - - E 7 9 4 5 1014.7 - -
05/02:29am 25.5 - - - - E 7 - 4 - - 1014.8 -
05/02:00am 25.6 - - - - E 9 11 5 6 1014.6 - -
05/01:30am 25.6 - - - - NE 9 11 5 6 1014.8 - -
05/01:29am 25.6 - - - - NE 9 - 5 - - 1014.9 -
05/01:00am 25.6 - - - - ENE 9 11 5 6 1015.0 - -
05/12:30am 25.6 - - - - ENE 11 13 6 7 1015.3 - -
05/12:29am 25.6 - - - - ENE 11 - 6 - - 1015.4 -
05/12:00am 25.6 - - - - E 11 13 6 7 1015.4 - -
 
Date/Time
EST
Temp
°C
App
Temp
°C
Dew
Point
Rel
Hum
%
Delta-T
°C
Wind Press
QNH
hPa
Press
MSL
hPa
Rain
since 9 am
mm
Dir
 
Spd
km/h
Gust
km/h
Spd
kts
Gust
kts
04/11:30pm 25.6 - - - - E 13 15 7 8 1015.6 - -
04/11:29pm 25.6 - - - - E 13 - 7 - - 1015.8 -
04/11:00pm 25.6 - - - - E 13 15 7 8 1016.0 - -
04/10:30pm 25.5 - - - - E 15 17 8 9 1016.2 - -
04/10:29pm 25.5 - - - - E 15 - 8 - - 1016.3 -
04/10:00pm 25.5 - - - - E 17 19 9 10 1016.3 - -
04/09:30pm 25.3 - - - - E 20 22 11 12 1016.3 - -
04/09:29pm 25.3 - - - - E 20 - 11 - - 1016.4 -
04/09:00pm 25.1 - - - - E 20 22 11 12 1016.3 - -
04/08:30pm 25.0 - - - - E 20 22 11 12 1016.3 - -
04/08:29pm 25.0 - - - - E 19 - 10 - - 1016.4 -
04/08:00pm 24.9 - - - - ESE 20 24 11 13 1016.2 - -
04/07:30pm 25.0 - - - - ESE 24 26 13 14 1015.8 - -
04/07:29pm 24.9 - - - - SE 24 - 13 - - 1015.9 -
04/07:00pm 24.7 - - - - SE 24 26 13 14 1015.6 - -
04/06:30pm 24.7 - - - - SE 28 32 15 17 1015.0 - -
04/06:29pm 24.8 - - - - SE 28 - 15 - - 1015.1 -
04/06:00pm 24.7 - - - - SE 30 33 16 18 1014.7 - -
04/05:30pm 24.4 - - - - SE 33 37 18 20 1014.2 - -
04/05:29pm 24.6 - - - - SE 33 - 18 - - 1014.3 -
04/05:00pm 24.4 - - - - SE 35 39 19 21 1014.0 - -
04/04:30pm 24.8 - - - - SSE 41 44 22 24 1013.9 - -
04/04:29pm 24.9 - - - - SSE 39 - 21 - - 1013.9 -
04/04:20pm 25.4 - - - - SSE 37 48 20 26 1013.8 - -
04/04:00pm 26.2 - - - - SSW 17 19 9 10 1013.5 - -
04/03:30pm 26.4 - - - - SSW 17 20 9 11 1013.4 - -
04/03:29pm 26.3 - - - - SSW 17 - 9 - - 1013.5 -
04/03:00pm 26.3 - - - - SW 19 20 10 11 1013.1 - -
04/02:30pm 26.4 - - - - SW 17 20 9 11 1013.0 - -
04/02:29pm 26.3 - - - - SW 17 - 9 - - 1013.1 -
04/02:00pm 26.3 - - - - W 19 20 10 11 1013.0 - -
04/01:30pm 26.3 - - - - W 17 20 9 11 1013.2 - -
04/01:29pm 26.3 - - - - W 17 - 9 - - 1013.3 -
04/01:00pm 26.4 - - - - W 17 20 9 11 1013.5 - -
04/12:30pm 26.4 - - - - WNW 15 19 8 10 1013.5 - -
04/12:29pm 26.4 - - - - WNW 17 - 9 - - 1013.6 -
04/12:00pm 26.4 - - - - NW 15 19 8 10 1013.9 - -
04/11:30am 26.4 - - - - NNW 15 17 8 9 1014.3 - -
04/11:29am 26.4 - - - - NNW 15 - 8 - - 1014.4 -
04/11:00am 26.3 - - - - NNW 13 15 7 8 1014.6 - -
04/10:30am 26.2 - - - - N 11 15 6 8 1015.1 - -
04/10:29am 26.3 - - - - N 11 - 6 - - 1015.3 -
04/10:00am 26.5 - - - - N 9 11 5 6 1015.6 - -
04/09:30am 26.3 - - - - N 9 11 5 6 1016.0 - -
04/09:29am 26.3 - - - - N 11 - 6 - - 1016.1 -
04/09:00am 26.2 - - - - N 11 13 6 7 1016.0 - -
04/08:30am 25.9 - - - - N 11 13 6 7 1015.6 - -
04/08:29am 26.0 - - - - N 11 - 6 - - 1015.7 -
04/08:00am 26.0 - - - - N 11 13 6 7 1015.5 - -
04/07:30am 25.9 - - - - N 11 13 6 7 1015.3 - -
04/07:29am 26.0 - - - - N 11 - 6 - - 1015.4 -
04/07:00am 25.8 - - - - N 11 13 6 7 1014.9 - -
04/06:30am 25.8 - - - - N 11 13 6 7 1014.5 - -
04/06:29am 25.8 - - - - N 11 - 6 - - 1014.6 -
04/06:00am 25.8 - - - - N 13 15 7 8 1014.1 - -
04/05:30am 25.7 - - - - N 13 15 7 8 1013.8 - -
04/05:29am 25.7 - - - - N 13 - 7 - - 1013.9 -
04/05:00am 25.7 - - - - N 9 11 5 6 1013.7 - -
04/04:30am 25.6 - - - - N 13 15 7 8 1013.3 - -
04/04:29am 25.6 - - - - N 13 - 7 - - 1013.4 -
04/04:00am 25.6 - - - - N 15 17 8 9 1012.9 - -
04/03:30am 25.7 - - - - N 13 17 7 9 1012.7 - -
04/03:29am 25.7 - - - - N 13 - 7 - - 1012.8 -
04/03:00am 25.7 - - - - N 17 19 9 10 1012.4 - -
04/02:30am 25.6 - - - - N 19 22 10 12 1012.2 - -
04/02:29am 25.6 - - - - N 19 - 10 - - 1012.3 -
04/02:00am 25.6 - - - - N 17 20 9 11 1012.5 - -
04/01:30am 25.5 - - - - N 19 20 10 11 1012.8 - -
04/01:29am 25.6 - - - - N 19 - 10 - - 1012.9 -
04/01:00am 25.6 - - - - N 15 19 8 10 1013.0 - -
04/12:30am 25.5 - - - - N 17 19 9 10 1013.1 - -
04/12:29am 25.6 - - - - N 17 - 9 - - 1013.3 -
04/12:00am 25.5 - - - - N 17 19 9 10 1013.3 - -
 
Date/Time
EST
Temp
°C
App
Temp
°C
Dew
Point
Rel
Hum
%
Delta-T
°C
Wind Press
QNH
hPa
Press
MSL
hPa
Rain
since 9 am
mm
Dir
 
Spd
km/h
Gust
km/h
Spd
kts
Gust
kts
03/11:30pm 25.6 - - - - N 13 15 7 8 1013.8 - -
03/11:29pm 25.5 - - - - N 11 - 6 - - 1013.9 -
03/11:00pm 25.6 - - - - N 11 13 6 7 1014.1 - -
03/10:30pm 25.5 - - - - N 13 15 7 8 1014.3 - -
03/10:29pm 25.5 - - - - N 13 - 7 - - 1014.4 -
03/10:00pm 25.6 - - - - N 9 11 5 6 1014.7 - -
03/09:30pm 25.6 - - - - N 9 11 5 6 1014.8 - -
03/09:29pm 25.5 - - - - N 9 - 5 - - 1014.9 -
03/09:00pm 25.6 - - - - N 7 9 4 5 1014.9 - -
03/08:30pm 25.6 - - - - NNE 6 9 3 5 1014.7 - -
03/08:29pm 25.7 - - - - NNE 6 - 3 - - 1014.8 -
03/08:00pm 25.6 - - - - NNE 6 7 3 4 1014.6 - -
03/07:30pm 25.6 - - - - NNE 6 7 3 4 1014.2 - -
03/07:29pm 25.7 - - - - NNE 7 - 4 - - 1014.3 -
03/07:00pm 25.7 - - - - N 7 9 4 5 1013.6 - -
03/06:30pm 25.6 - - - - NNE 4 7 2 4 1013.4 - -
03/06:29pm 25.6 - - - - NNE 4 - 2 - - 1013.5 -
03/06:00pm 25.6 - - - - CALM 0 4 0 2 1013.2 - -
03/05:30pm 25.6 - - - - NNE 4 6 2 3 1012.6 - -
03/05:29pm 25.7 - - - - NNE 4 - 2 - - 1012.7 -
03/05:00pm 25.9 - - - - NNW 6 7 3 4 1012.1 - -
03/04:30pm 26.3 - - - - NNW 7 9 4 5 1012.0 - -
03/04:29pm 26.2 - - - - NNW 7 - 4 - - 1012.1 -
03/04:00pm 26.2 - - - - NW 7 9 4 5 1012.0 - -
03/03:30pm 26.4 - - - - NNW 7 9 4 5 1011.6 - -
03/03:29pm 26.3 - - - - NNW 7 - 4 - - 1011.7 -
03/03:00pm 26.4 - - - - N 4 7 2 4 1011.5 - -
03/02:30pm 26.3 - - - - N 6 9 3 5 1011.5 - -
03/02:29pm 26.3 - - - - N 6 - 3 - - 1011.6 -
03/02:00pm 26.5 - - - - N 7 9 4 5 1011.8 - -
03/01:30pm 26.4 - - - - N 7 7 4 4 1012.1 - -
03/01:29pm 26.4 - - - - N 7 - 4 - - 1012.2 -
03/01:00pm 26.3 - - - - N 7 9 4 5 1012.3 - -
03/12:30pm 26.4 - - - - N 6 9 3 5 1012.8 - -
03/12:29pm 26.4 - - - - N 6 - 3 - - 1012.9 -
03/12:00pm 26.3 - - - - NE 2 7 1 4 1013.3 - -
03/11:30am 27.5 - - - - CALM 0 0 0 0 1013.7 - -
03/11:29am 27.5 - - - - CALM 0 - 0 - - 1013.8 -
03/11:00am 27.6 - - - - CALM 0 4 0 2 1014.1 - -
03/10:30am 26.6 - - - - NE 2 6 1 3 1014.6 - -
03/10:29am 26.6 - - - - NE 2 - 1 - - 1014.8 -
03/10:00am 26.4 - - - - CALM 0 4 0 2 1015.1 - -
03/09:30am 26.9 - - - - CALM 0 0 0 0 1015.3 - -
03/09:29am 27.0 - - - - CALM 0 - 0 - - 1015.4 -
03/09:00am 27.7 - - - - CALM 0 4 0 2 1015.2 - -
03/08:30am 27.4 - - - - NE 2 7 1 4 1015.0 - -
03/08:29am 27.3 - - - - NE 2 - 1 - - 1015.0 -
03/08:00am 26.6 - - - - NE 4 7 2 4 1014.7 - -
03/07:30am 25.7 - - - - NNE 7 9 4 5 1014.4 - -
03/07:29am 25.8 - - - - NNE 7 - 4 - - 1014.5 -
03/07:00am 25.6 - - - - NNE 7 11 4 6 1014.1 - -
03/06:30am 25.4 - - - - NNE 7 11 4 6 1014.1 - -
03/06:29am 25.5 - - - - NNE 7 - 4 - - 1014.2 -
03/06:00am 25.4 - - - - N 11 13 6 7 1013.6 - -
03/05:30am 25.3 - - - - NNE 7 11 4 6 1013.4 - -
03/05:29am 25.3 - - - - NNE 9 - 5 - - 1013.5 -
03/05:00am 25.2 - - - - NNE 11 13 6 7 1013.1 - -
03/04:30am 25.1 - - - - NE 6 7 3 4 1013.0 - -
03/04:29am 25.1 - - - - NE 6 - 3 - - 1013.1 -
03/04:00am 25.1 - - - - CALM 0 0 0 0 1013.0 - -
03/03:30am 25.1 - - - - ENE 2 6 1 3 1013.2 - -
03/03:29am 25.1 - - - - ENE 2 - 1 - - 1013.3 -
03/03:00am 25.1 - - - - CALM 0 0 0 0 1013.3 - -
03/02:30am 25.3 - - - - NE 4 6 2 3 1013.3 - -
03/02:29am 25.3 - - - - NE 4 - 2 - - 1013.4 -
03/02:00am 25.3 - - - - ENE 6 7 3 4 1013.4 - -
03/01:30am 25.4 - - - - NE 9 11 5 6 1013.5 - -
03/01:29am 25.4 - - - - NE 9 - 5 - - 1013.7 -
03/01:00am 25.4 - - - - NE 9 11 5 6 1013.9 - -
03/12:30am 25.6 - - - - NE 11 11 6 6 1014.2 - -
03/12:29am 25.5 - - - - NE 11 - 6 - - 1014.3 -
03/12:00am 25.4 - - - - NE 6 7 3 4 1014.7 - -
 
Date/Time
EST
Temp
°C
App
Temp
°C
Dew
Point
Rel
Hum
%
Delta-T
°C
Wind Press
QNH
hPa
Press
MSL
hPa
Rain
since 9 am
mm
Dir
 
Spd
km/h
Gust
km/h
Spd
kts
Gust
kts
02/11:30pm 25.5 - - - - NE 6 7 3 4 1014.8 - -
02/11:29pm 25.5 - - - - NE 6 - 3 - - 1014.9 -
02/11:00pm 25.5 - - - - NE 6 7 3 4 1015.0 - -
02/10:30pm 25.4 - - - - E 4 7 2 4 1015.3 - -
02/10:29pm 25.4 - - - - E 4 - 2 - - 1015.4 -

Other Formats:

Comma delimited format used in spreadsheet applications
http://www.bom.gov.au/fwo/IDQ60801/IDQ60801.94379.axf

JavaScript Object Notation format (JSON) in row-major order
http://www.bom.gov.au/fwo/IDQ60801/IDQ60801.94379.json